sensor_id;sensor_type;location;lat;lon;timestamp;P1;durP1;ratioP1;P2;durP2;ratioP2
49582;SDS011;36329;48.816;44.624;2023-07-30T00:02:04;2.8;;;1.2;;
49582;SDS011;36329;48.816;44.624;2023-07-30T00:05:06;1.8;;;1.2;;
49582;SDS011;36329;48.816;44.624;2023-07-30T00:08:08;1.8;;;1;;
49582;SDS011;36329;48.816;44.624;2023-07-30T00:11:10;2.9;;;1.4;;
49582;SDS011;36329;48.816;44.624;2023-07-30T00:14:12;1.9;;;1.1;;
49582;SDS011;36329;48.816;44.624;2023-07-30T00:17:14;1.3;;;1.1;;
49582;SDS011;36329;48.816;44.624;2023-07-30T00:20:16;2.7;;;1.2;;
49582;SDS011;36329;48.816;44.624;2023-07-30T00:23:18;2.9;;;1.1;;
49582;SDS011;36329;48.816;44.624;2023-07-30T00:26:20;1.7;;;1;;
49582;SDS011;36329;48.816;44.624;2023-07-30T00:29:22;1.6;;;0.9;;
49582;SDS011;36329;48.816;44.624;2023-07-30T00:32:24;2.8;;;1.1;;
49582;SDS011;36329;48.816;44.624;2023-07-30T00:35:26;2.2;;;1.3;;
49582;SDS011;36329;48.816;44.624;2023-07-30T00:38:27;1.7;;;1.1;;
49582;SDS011;36329;48.816;44.624;2023-07-30T00:41:29;3.3;;;1.3;;
49582;SDS011;36329;48.816;44.624;2023-07-30T00:44:31;1.9;;;1.2;;
49582;SDS011;36329;48.816;44.624;2023-07-30T00:47:33;4;;;1.3;;
49582;SDS011;36329;48.816;44.624;2023-07-30T00:50:36;2;;;1.3;;
49582;SDS011;36329;48.816;44.624;2023-07-30T00:53:38;3.1;;;1.2;;
49582;SDS011;36329;48.816;44.624;2023-07-30T00:56:41;3.6;;;1.2;;
49582;SDS011;36329;48.816;44.624;2023-07-30T00:59:49;1.6;;;1.2;;
49582;SDS011;36329;48.816;44.624;2023-07-30T01:02:52;3.7;;;1.3;;
49582;SDS011;36329;48.816;44.624;2023-07-30T01:05:54;2.7;;;1;;
49582;SDS011;36329;48.816;44.624;2023-07-30T01:08:57;1.8;;;1.3;;
49582;SDS011;36329;48.816;44.624;2023-07-30T01:11:59;4.2;;;1.6;;
49582;SDS011;36329;48.816;44.624;2023-07-30T01:15:03;2.3;;;1.2;;
49582;SDS011;36329;48.816;44.624;2023-07-30T01:18:09;2.1;;;1.3;;
49582;SDS011;36329;48.816;44.624;2023-07-30T01:21:11;4.2;;;1.4;;
49582;SDS011;36329;48.816;44.624;2023-07-30T01:24:13;3.1;;;1.1;;
49582;SDS011;36329;48.816;44.624;2023-07-30T01:27:18;2.8;;;1.2;;
49582;SDS011;36329;48.816;44.624;2023-07-30T01:30:25;3.4;;;1.3;;
49582;SDS011;36329;48.816;44.624;2023-07-30T01:33:29;2.9;;;1.3;;
49582;SDS011;36329;48.816;44.624;2023-07-30T01:36:31;3.7;;;1.4;;
49582;SDS011;36329;48.816;44.624;2023-07-30T01:39:34;3.4;;;1.6;;
49582;SDS011;36329;48.816;44.624;2023-07-30T01:42:38;2.8;;;1.4;;
49582;SDS011;36329;48.816;44.624;2023-07-30T01:45:40;2.7;;;1.5;;
49582;SDS011;36329;48.816;44.624;2023-07-30T01:48:42;2.9;;;1.7;;
49582;SDS011;36329;48.816;44.624;2023-07-30T01:51:44;3.1;;;1.6;;
49582;SDS011;36329;48.816;44.624;2023-07-30T01:54:46;4.2;;;1.7;;
49582;SDS011;36329;48.816;44.624;2023-07-30T01:57:47;2.5;;;1.4;;
49582;SDS011;36329;48.816;44.624;2023-07-30T02:00:49;3;;;1.6;;
49582;SDS011;36329;48.816;44.624;2023-07-30T02:03:51;2.7;;;1.6;;
49582;SDS011;36329;48.816;44.624;2023-07-30T02:06:53;2;;;1.6;;
49582;SDS011;36329;48.816;44.624;2023-07-30T02:09:55;4.3;;;1.7;;
49582;SDS011;36329;48.816;44.624;2023-07-30T02:12:57;3.6;;;1.6;;
49582;SDS011;36329;48.816;44.624;2023-07-30T02:15:59;4.3;;;1.7;;
49582;SDS011;36329;48.816;44.624;2023-07-30T02:19:01;7.7;;;1.9;;
49582;SDS011;36329;48.816;44.624;2023-07-30T02:22:04;2.8;;;1.7;;
49582;SDS011;36329;48.816;44.624;2023-07-30T02:25:06;2.5;;;1.6;;
49582;SDS011;36329;48.816;44.624;2023-07-30T02:28:08;3.8;;;1.7;;
49582;SDS011;36329;48.816;44.624;2023-07-30T02:31:11;5.4;;;2.1;;
49582;SDS011;36329;48.816;44.624;2023-07-30T02:34:13;4.8;;;2.2;;
49582;SDS011;36329;48.816;44.624;2023-07-30T02:37:14;4.5;;;2.1;;
49582;SDS011;36329;48.816;44.624;2023-07-30T02:40:16;3.7;;;1.8;;
49582;SDS011;36329;48.816;44.624;2023-07-30T02:43:18;3.3;;;1.9;;
49582;SDS011;36329;48.816;44.624;2023-07-30T02:46:20;3;;;1.7;;
49582;SDS011;36329;48.816;44.624;2023-07-30T02:49:23;3.9;;;2;;
49582;SDS011;36329;48.816;44.624;2023-07-30T02:52:25;5.6;;;1.9;;
49582;SDS011;36329;48.816;44.624;2023-07-30T02:55:26;3.2;;;1.7;;
49582;SDS011;36329;48.816;44.624;2023-07-30T02:58:28;4.8;;;1.7;;
49582;SDS011;36329;48.816;44.624;2023-07-30T03:01:30;2.9;;;1.9;;
49582;SDS011;36329;48.816;44.624;2023-07-30T03:04:32;2.2;;;1.5;;
49582;SDS011;36329;48.816;44.624;2023-07-30T03:07:35;4.5;;;1.8;;
49582;SDS011;36329;48.816;44.624;2023-07-30T03:10:37;3.2;;;1.6;;
49582;SDS011;36329;48.816;44.624;2023-07-30T03:13:39;3.9;;;1.8;;
49582;SDS011;36329;48.816;44.624;2023-07-30T03:16:41;3.4;;;1.6;;
49582;SDS011;36329;48.816;44.624;2023-07-30T03:19:43;3.1;;;1.8;;
49582;SDS011;36329;48.816;44.624;2023-07-30T03:22:44;4.1;;;1.7;;
49582;SDS011;36329;48.816;44.624;2023-07-30T03:25:46;3.5;;;1.6;;
49582;SDS011;36329;48.816;44.624;2023-07-30T03:28:48;2.4;;;1.8;;
49582;SDS011;36329;48.816;44.624;2023-07-30T03:31:51;5.5;;;1.8;;
49582;SDS011;36329;48.816;44.624;2023-07-30T03:34:53;2.9;;;1.6;;
49582;SDS011;36329;48.816;44.624;2023-07-30T03:37:55;3.3;;;1.6;;
49582;SDS011;36329;48.816;44.624;2023-07-30T03:40:57;3.8;;;1.7;;
49582;SDS011;36329;48.816;44.624;2023-07-30T03:43:59;4.6;;;1.8;;
49582;SDS011;36329;48.816;44.624;2023-07-30T03:47:00;4.9;;;1.8;;
49582;SDS011;36329;48.816;44.624;2023-07-30T03:50:03;5.4;;;1.9;;
49582;SDS011;36329;48.816;44.624;2023-07-30T03:53:06;3.6;;;1.8;;
49582;SDS011;36329;48.816;44.624;2023-07-30T03:56:08;3.5;;;1.5;;
49582;SDS011;36329;48.816;44.624;2023-07-30T03:59:10;2.7;;;1.5;;
49582;SDS011;36329;48.816;44.624;2023-07-30T04:02:12;4.5;;;1.7;;
49582;SDS011;36329;48.816;44.624;2023-07-30T04:05:14;5.9;;;2;;
49582;SDS011;36329;48.816;44.624;2023-07-30T04:08:16;3.4;;;1.5;;
49582;SDS011;36329;48.816;44.624;2023-07-30T04:11:18;6;;;1.8;;
49582;SDS011;36329;48.816;44.624;2023-07-30T04:14:20;3.5;;;1.9;;
49582;SDS011;36329;48.816;44.624;2023-07-30T04:17:23;4.8;;;1.7;;
49582;SDS011;36329;48.816;44.624;2023-07-30T04:20:25;5.6;;;1.7;;
49582;SDS011;36329;48.816;44.624;2023-07-30T04:23:27;4.7;;;1.7;;
49582;SDS011;36329;48.816;44.624;2023-07-30T04:26:29;5.1;;;1.7;;
49582;SDS011;36329;48.816;44.624;2023-07-30T04:29:31;4.7;;;1.7;;
49582;SDS011;36329;48.816;44.624;2023-07-30T04:32:33;7.8;;;2.3;;
49582;SDS011;36329;48.816;44.624;2023-07-30T04:35:36;5.1;;;1.7;;
49582;SDS011;36329;48.816;44.624;2023-07-30T04:38:38;3.4;;;1.5;;
49582;SDS011;36329;48.816;44.624;2023-07-30T04:41:40;4.1;;;1.5;;
49582;SDS011;36329;48.816;44.624;2023-07-30T04:44:42;4.3;;;1.7;;
49582;SDS011;36329;48.816;44.624;2023-07-30T04:47:43;5;;;1.5;;
49582;SDS011;36329;48.816;44.624;2023-07-30T04:50:45;4.8;;;1.7;;
49582;SDS011;36329;48.816;44.624;2023-07-30T04:53:47;3.7;;;1.9;;
49582;SDS011;36329;48.816;44.624;2023-07-30T04:56:49;6;;;1.7;;
49582;SDS011;36329;48.816;44.624;2023-07-30T04:59:51;4.3;;;1.6;;
49582;SDS011;36329;48.816;44.624;2023-07-30T05:02:53;3.2;;;1.5;;
49582;SDS011;36329;48.816;44.624;2023-07-30T05:05:55;3.5;;;1.4;;
49582;SDS011;36329;48.816;44.624;2023-07-30T05:08:57;3;;;1.6;;
49582;SDS011;36329;48.816;44.624;2023-07-30T05:11:59;4.5;;;1.6;;
49582;SDS011;36329;48.816;44.624;2023-07-30T05:15:01;4.7;;;1.7;;
49582;SDS011;36329;48.816;44.624;2023-07-30T05:18:05;3.1;;;1.6;;
49582;SDS011;36329;48.816;44.624;2023-07-30T05:21:07;7.1;;;1.7;;
49582;SDS011;36329;48.816;44.624;2023-07-30T05:24:09;4.4;;;1.6;;
49582;SDS011;36329;48.816;44.624;2023-07-30T05:27:12;1.9;;;1.2;;
49582;SDS011;36329;48.816;44.624;2023-07-30T05:30:15;2.9;;;1.8;;
49582;SDS011;36329;48.816;44.624;2023-07-30T05:33:17;4.1;;;1.5;;
49582;SDS011;36329;48.816;44.624;2023-07-30T05:36:20;4.4;;;1.5;;
49582;SDS011;36329;48.816;44.624;2023-07-30T05:39:22;4;;;1.6;;
49582;SDS011;36329;48.816;44.624;2023-07-30T05:42:24;4.6;;;1.5;;
49582;SDS011;36329;48.816;44.624;2023-07-30T05:45:26;3.8;;;1.5;;
49582;SDS011;36329;48.816;44.624;2023-07-30T05:48:28;5;;;1.6;;
49582;SDS011;36329;48.816;44.624;2023-07-30T05:51:30;2.2;;;1.6;;
49582;SDS011;36329;48.816;44.624;2023-07-30T05:54:32;3.8;;;2.2;;
49582;SDS011;36329;48.816;44.624;2023-07-30T05:57:34;2.6;;;1.6;;
49582;SDS011;36329;48.816;44.624;2023-07-30T06:00:36;2.9;;;1.7;;
49582;SDS011;36329;48.816;44.624;2023-07-30T06:03:44;2.4;;;1.6;;
49582;SDS011;36329;48.816;44.624;2023-07-30T06:06:46;3.1;;;1.6;;
49582;SDS011;36329;48.816;44.624;2023-07-30T06:09:48;4.9;;;1.7;;
49582;SDS011;36329;48.816;44.624;2023-07-30T06:12:50;3.6;;;1.7;;
49582;SDS011;36329;48.816;44.624;2023-07-30T06:15:52;4.3;;;1.4;;
49582;SDS011;36329;48.816;44.624;2023-07-30T06:18:54;3.2;;;1.5;;
49582;SDS011;36329;48.816;44.624;2023-07-30T06:21:56;2.7;;;1.8;;
49582;SDS011;36329;48.816;44.624;2023-07-30T06:24:58;5.6;;;1.8;;
49582;SDS011;36329;48.816;44.624;2023-07-30T06:28:00;3.4;;;1.7;;
49582;SDS011;36329;48.816;44.624;2023-07-30T06:31:02;2.9;;;1.6;;
49582;SDS011;36329;48.816;44.624;2023-07-30T06:34:04;4.5;;;1.6;;
49582;SDS011;36329;48.816;44.624;2023-07-30T06:37:06;4.6;;;1.7;;
49582;SDS011;36329;48.816;44.624;2023-07-30T06:40:08;2.8;;;1.5;;
49582;SDS011;36329;48.816;44.624;2023-07-30T06:43:10;2.4;;;1.6;;
49582;SDS011;36329;48.816;44.624;2023-07-30T06:46:12;5.4;;;1.7;;
49582;SDS011;36329;48.816;44.624;2023-07-30T06:49:14;4.1;;;1.5;;
49582;SDS011;36329;48.816;44.624;2023-07-30T06:52:16;5.3;;;2;;
49582;SDS011;36329;48.816;44.624;2023-07-30T06:55:18;5.8;;;1.6;;
49582;SDS011;36329;48.816;44.624;2023-07-30T06:58:22;3.8;;;1.6;;
49582;SDS011;36329;48.816;44.624;2023-07-30T07:01:24;4.3;;;1.6;;
49582;SDS011;36329;48.816;44.624;2023-07-30T07:04:26;7.3;;;1.4;;
49582;SDS011;36329;48.816;44.624;2023-07-30T07:07:28;3.7;;;1.4;;
49582;SDS011;36329;48.816;44.624;2023-07-30T07:10:30;3.3;;;1.4;;
49582;SDS011;36329;48.816;44.624;2023-07-30T07:13:32;3.4;;;1.2;;
49582;SDS011;36329;48.816;44.624;2023-07-30T07:16:36;5.9;;;1.5;;
49582;SDS011;36329;48.816;44.624;2023-07-30T07:19:37;2.7;;;1.4;;
49582;SDS011;36329;48.816;44.624;2023-07-30T07:22:39;4.9;;;1.4;;
49582;SDS011;36329;48.816;44.624;2023-07-30T07:25:41;4.1;;;1.4;;
49582;SDS011;36329;48.816;44.624;2023-07-30T07:28:45;4.1;;;1.2;;
49582;SDS011;36329;48.816;44.624;2023-07-30T07:31:47;5.5;;;1.1;;
49582;SDS011;36329;48.816;44.624;2023-07-30T07:34:49;3.2;;;1.3;;
49582;SDS011;36329;48.816;44.624;2023-07-30T07:37:51;5;;;1.5;;
49582;SDS011;36329;48.816;44.624;2023-07-30T07:40:53;2.4;;;1.3;;
49582;SDS011;36329;48.816;44.624;2023-07-30T07:43:55;5.3;;;1.6;;
49582;SDS011;36329;48.816;44.624;2023-07-30T07:46:58;3.8;;;1.2;;
49582;SDS011;36329;48.816;44.624;2023-07-30T07:50:00;3.5;;;1.6;;
49582;SDS011;36329;48.816;44.624;2023-07-30T07:53:02;3.6;;;1.3;;
49582;SDS011;36329;48.816;44.624;2023-07-30T07:56:04;2.6;;;1.1;;
49582;SDS011;36329;48.816;44.624;2023-07-30T07:59:06;4.3;;;1.4;;
49582;SDS011;36329;48.816;44.624;2023-07-30T08:02:08;3;;;1.4;;
49582;SDS011;36329;48.816;44.624;2023-07-30T08:05:11;3.4;;;1.2;;
49582;SDS011;36329;48.816;44.624;2023-07-30T08:08:13;7.6;;;1.6;;
49582;SDS011;36329;48.816;44.624;2023-07-30T08:11:15;5.1;;;1.6;;
49582;SDS011;36329;48.816;44.624;2023-07-30T08:14:17;5.1;;;1.2;;
49582;SDS011;36329;48.816;44.624;2023-07-30T08:17:19;4;;;1.3;;
49582;SDS011;36329;48.816;44.624;2023-07-30T08:20:21;3.4;;;1.4;;
49582;SDS011;36329;48.816;44.624;2023-07-30T08:23:23;6.9;;;1.4;;
49582;SDS011;36329;48.816;44.624;2023-07-30T08:26:25;3;;;1.3;;
49582;SDS011;36329;48.816;44.624;2023-07-30T08:29:27;3.3;;;1.3;;
49582;SDS011;36329;48.816;44.624;2023-07-30T08:32:29;5.8;;;1.3;;
49582;SDS011;36329;48.816;44.624;2023-07-30T08:35:31;3.6;;;1.2;;
49582;SDS011;36329;48.816;44.624;2023-07-30T08:38:33;2.6;;;1.2;;
49582;SDS011;36329;48.816;44.624;2023-07-30T08:41:35;4.3;;;1;;
49582;SDS011;36329;48.816;44.624;2023-07-30T08:44:37;4.2;;;1.4;;
49582;SDS011;36329;48.816;44.624;2023-07-30T08:47:39;3.8;;;1.3;;
49582;SDS011;36329;48.816;44.624;2023-07-30T08:50:41;3.8;;;1.1;;
49582;SDS011;36329;48.816;44.624;2023-07-30T08:53:44;2.5;;;1.1;;
49582;SDS011;36329;48.816;44.624;2023-07-30T08:56:47;2.5;;;1.2;;
49582;SDS011;36329;48.816;44.624;2023-07-30T08:59:51;4.5;;;1.3;;
49582;SDS011;36329;48.816;44.624;2023-07-30T09:02:58;4.5;;;1.2;;
49582;SDS011;36329;48.816;44.624;2023-07-30T09:06:01;3.2;;;1.1;;
49582;SDS011;36329;48.816;44.624;2023-07-30T09:09:03;3.1;;;1;;
49582;SDS011;36329;48.816;44.624;2023-07-30T09:12:12;2.7;;;1.1;;
49582;SDS011;36329;48.816;44.624;2023-07-30T09:15:15;3;;;1.2;;
49582;SDS011;36329;48.816;44.624;2023-07-30T09:18:18;1.5;;;1.2;;
49582;SDS011;36329;48.816;44.624;2023-07-30T09:21:29;5.1;;;1.2;;
49582;SDS011;36329;48.816;44.624;2023-07-30T09:24:32;4.8;;;1.3;;
49582;SDS011;36329;48.816;44.624;2023-07-30T09:27:34;3.4;;;1.4;;
49582;SDS011;36329;48.816;44.624;2023-07-30T09:30:36;4.8;;;1.5;;
49582;SDS011;36329;48.816;44.624;2023-07-30T09:33:40;2.6;;;1;;
49582;SDS011;36329;48.816;44.624;2023-07-30T09:36:43;4.5;;;1.1;;
49582;SDS011;36329;48.816;44.624;2023-07-30T09:39:47;3;;;1.2;;
49582;SDS011;36329;48.816;44.624;2023-07-30T09:42:50;2.5;;;1.2;;
49582;SDS011;36329;48.816;44.624;2023-07-30T09:45:52;2.8;;;1.3;;
49582;SDS011;36329;48.816;44.624;2023-07-30T09:48:54;2.9;;;1.2;;
49582;SDS011;36329;48.816;44.624;2023-07-30T09:51:56;3.1;;;1.3;;
49582;SDS011;36329;48.816;44.624;2023-07-30T09:54:58;3.1;;;1.2;;
49582;SDS011;36329;48.816;44.624;2023-07-30T09:58:01;3.2;;;1.5;;
49582;SDS011;36329;48.816;44.624;2023-07-30T10:01:03;4.2;;;1.4;;
49582;SDS011;36329;48.816;44.624;2023-07-30T10:04:07;5.4;;;1.2;;
49582;SDS011;36329;48.816;44.624;2023-07-30T10:07:13;2.2;;;1.2;;
49582;SDS011;36329;48.816;44.624;2023-07-30T10:10:18;3.6;;;1.3;;
49582;SDS011;36329;48.816;44.624;2023-07-30T10:13:23;2.7;;;1.2;;
49582;SDS011;36329;48.816;44.624;2023-07-30T10:16:27;4.5;;;1.3;;
49582;SDS011;36329;48.816;44.624;2023-07-30T10:19:30;4.7;;;1.4;;
49582;SDS011;36329;48.816;44.624;2023-07-30T10:22:32;6.3;;;1.7;;
49582;SDS011;36329;48.816;44.624;2023-07-30T10:25:42;3.7;;;1.7;;
49582;SDS011;36329;48.816;44.624;2023-07-30T10:28:46;4.3;;;1.5;;
49582;SDS011;36329;48.816;44.624;2023-07-30T10:31:52;2.9;;;1.3;;
49582;SDS011;36329;48.816;44.624;2023-07-30T10:34:56;4.2;;;1.4;;
49582;SDS011;36329;48.816;44.624;2023-07-30T10:37:58;3.1;;;1.2;;
49582;SDS011;36329;48.816;44.624;2023-07-30T10:41:00;4.5;;;1.4;;
49582;SDS011;36329;48.816;44.624;2023-07-30T10:44:03;3.2;;;1.2;;
49582;SDS011;36329;48.816;44.624;2023-07-30T10:47:05;6.7;;;1.5;;
49582;SDS011;36329;48.816;44.624;2023-07-30T10:50:07;3.9;;;1.1;;
49582;SDS011;36329;48.816;44.624;2023-07-30T10:53:10;5.7;;;1.2;;
49582;SDS011;36329;48.816;44.624;2023-07-30T10:56:12;3.8;;;1.4;;
49582;SDS011;36329;48.816;44.624;2023-07-30T10:59:14;3;;;1.2;;
49582;SDS011;36329;48.816;44.624;2023-07-30T11:02:17;4.3;;;1;;
49582;SDS011;36329;48.816;44.624;2023-07-30T11:05:19;4.9;;;1.5;;
49582;SDS011;36329;48.816;44.624;2023-07-30T11:08:21;7.5;;;1.4;;
49582;SDS011;36329;48.816;44.624;2023-07-30T11:11:35;3.1;;;1.3;;
49582;SDS011;36329;48.816;44.624;2023-07-30T11:14:44;4;;;1.3;;
49582;SDS011;36329;48.816;44.624;2023-07-30T11:17:47;1.9;;;1.1;;
49582;SDS011;36329;48.816;44.624;2023-07-30T11:20:49;2.8;;;1.2;;
49582;SDS011;36329;48.816;44.624;2023-07-30T11:23:51;2.2;;;1;;
49582;SDS011;36329;48.816;44.624;2023-07-30T11:26:59;4.4;;;1.2;;
49582;SDS011;36329;48.816;44.624;2023-07-30T11:30:02;1.8;;;0.9;;
49582;SDS011;36329;48.816;44.624;2023-07-30T11:33:06;2;;;1.2;;
49582;SDS011;36329;48.816;44.624;2023-07-30T11:36:09;2;;;1.1;;
49582;SDS011;36329;48.816;44.624;2023-07-30T11:39:12;5.1;;;1.2;;
49582;SDS011;36329;48.816;44.624;2023-07-30T11:42:15;2.4;;;1.2;;
49582;SDS011;36329;48.816;44.624;2023-07-30T11:45:17;1.3;;;0.9;;
49582;SDS011;36329;48.816;44.624;2023-07-30T11:48:23;3.2;;;1;;
49582;SDS011;36329;48.816;44.624;2023-07-30T11:51:26;2.9;;;1.2;;
49582;SDS011;36329;48.816;44.624;2023-07-30T11:54:29;2.2;;;1.2;;
49582;SDS011;36329;48.816;44.624;2023-07-30T11:57:33;2.2;;;1;;
49582;SDS011;36329;48.816;44.624;2023-07-30T12:00:35;2.9;;;1.4;;
49582;SDS011;36329;48.816;44.624;2023-07-30T12:03:38;2.1;;;1;;
49582;SDS011;36329;48.816;44.624;2023-07-30T12:06:40;1.3;;;0.9;;
49582;SDS011;36329;48.816;44.624;2023-07-30T12:09:43;5.1;;;1.4;;
49582;SDS011;36329;48.816;44.624;2023-07-30T12:12:45;3.2;;;1;;
49582;SDS011;36329;48.816;44.624;2023-07-30T12:15:50;2.8;;;1;;
49582;SDS011;36329;48.816;44.624;2023-07-30T12:18:52;4.3;;;1.2;;
49582;SDS011;36329;48.816;44.624;2023-07-30T12:21:54;4.2;;;1;;
49582;SDS011;36329;48.816;44.624;2023-07-30T12:24:56;4.1;;;1.4;;
49582;SDS011;36329;48.816;44.624;2023-07-30T12:27:58;2.9;;;1.2;;
49582;SDS011;36329;48.816;44.624;2023-07-30T12:31:00;2.1;;;1.2;;
49582;SDS011;36329;48.816;44.624;2023-07-30T12:34:02;4;;;1.5;;
49582;SDS011;36329;48.816;44.624;2023-07-30T12:37:04;5.1;;;1.4;;
49582;SDS011;36329;48.816;44.624;2023-07-30T12:40:07;2.8;;;1.4;;
49582;SDS011;36329;48.816;44.624;2023-07-30T12:43:09;3.1;;;1.3;;
49582;SDS011;36329;48.816;44.624;2023-07-30T12:46:11;4.5;;;1.5;;
49582;SDS011;36329;48.816;44.624;2023-07-30T12:49:13;7.3;;;1.5;;
49582;SDS011;36329;48.816;44.624;2023-07-30T12:52:16;3.9;;;1.4;;
49582;SDS011;36329;48.816;44.624;2023-07-30T12:55:17;3.1;;;1.3;;
49582;SDS011;36329;48.816;44.624;2023-07-30T12:58:19;2.1;;;1.5;;
49582;SDS011;36329;48.816;44.624;2023-07-30T13:01:21;4.4;;;1.7;;
49582;SDS011;36329;48.816;44.624;2023-07-30T13:04:24;4.9;;;1.3;;
49582;SDS011;36329;48.816;44.624;2023-07-30T13:07:26;4.1;;;1.4;;
49582;SDS011;36329;48.816;44.624;2023-07-30T13:10:28;2.5;;;1.2;;
49582;SDS011;36329;48.816;44.624;2023-07-30T13:13:30;6.6;;;1.9;;
49582;SDS011;36329;48.816;44.624;2023-07-30T13:16:32;3.5;;;1.6;;
49582;SDS011;36329;48.816;44.624;2023-07-30T13:19:34;5;;;1.8;;
49582;SDS011;36329;48.816;44.624;2023-07-30T13:22:35;3.7;;;1.5;;
49582;SDS011;36329;48.816;44.624;2023-07-30T13:25:39;5.1;;;1.4;;
49582;SDS011;36329;48.816;44.624;2023-07-30T13:28:41;5.2;;;1.6;;
49582;SDS011;36329;48.816;44.624;2023-07-30T13:31:43;6.1;;;1.9;;
49582;SDS011;36329;48.816;44.624;2023-07-30T13:34:45;5.3;;;1.7;;
49582;SDS011;36329;48.816;44.624;2023-07-30T13:37:47;3.3;;;1.3;;
49582;SDS011;36329;48.816;44.624;2023-07-30T13:40:49;5;;;1.7;;
49582;SDS011;36329;48.816;44.624;2023-07-30T13:43:51;4;;;2;;
49582;SDS011;36329;48.816;44.624;2023-07-30T13:46:53;7.5;;;1.9;;
49582;SDS011;36329;48.816;44.624;2023-07-30T13:49:55;3.8;;;1.5;;
49582;SDS011;36329;48.816;44.624;2023-07-30T13:52:57;5.4;;;1.8;;
49582;SDS011;36329;48.816;44.624;2023-07-30T13:55:59;3.9;;;1.7;;
49582;SDS011;36329;48.816;44.624;2023-07-30T13:59:01;4.6;;;1.6;;
49582;SDS011;36329;48.816;44.624;2023-07-30T14:02:03;3.3;;;1.5;;
49582;SDS011;36329;48.816;44.624;2023-07-30T14:05:06;5.2;;;1.4;;
49582;SDS011;36329;48.816;44.624;2023-07-30T14:08:08;3.5;;;1.6;;
49582;SDS011;36329;48.816;44.624;2023-07-30T14:11:10;4.8;;;1.7;;
49582;SDS011;36329;48.816;44.624;2023-07-30T14:14:12;5.3;;;2;;
49582;SDS011;36329;48.816;44.624;2023-07-30T14:17:14;4.5;;;1.9;;
49582;SDS011;36329;48.816;44.624;2023-07-30T14:20:16;4.2;;;1.7;;
49582;SDS011;36329;48.816;44.624;2023-07-30T14:23:18;4.8;;;1.8;;
49582;SDS011;36329;48.816;44.624;2023-07-30T14:26:20;11.4;;;2.3;;
49582;SDS011;36329;48.816;44.624;2023-07-30T14:29:22;6.7;;;2;;
49582;SDS011;36329;48.816;44.624;2023-07-30T14:32:24;3.3;;;1.7;;
49582;SDS011;36329;48.816;44.624;2023-07-30T14:35:26;5.7;;;2.2;;
49582;SDS011;36329;48.816;44.624;2023-07-30T14:38:28;6.4;;;1.7;;
49582;SDS011;36329;48.816;44.624;2023-07-30T14:41:30;4.4;;;1.8;;
49582;SDS011;36329;48.816;44.624;2023-07-30T14:44:32;5.7;;;1.9;;
49582;SDS011;36329;48.816;44.624;2023-07-30T14:47:34;4.7;;;2;;
49582;SDS011;36329;48.816;44.624;2023-07-30T14:50:36;6.5;;;2.4;;
49582;SDS011;36329;48.816;44.624;2023-07-30T14:53:38;7.3;;;2.3;;
49582;SDS011;36329;48.816;44.624;2023-07-30T14:56:41;5.9;;;2.1;;
49582;SDS011;36329;48.816;44.624;2023-07-30T15:03:19;4.4;;;1.8;;
49582;SDS011;36329;48.816;44.624;2023-07-30T15:06:21;5.5;;;2.2;;
49582;SDS011;36329;48.816;44.624;2023-07-30T15:09:23;4.3;;;1.9;;
49582;SDS011;36329;48.816;44.624;2023-07-30T15:12:25;6.2;;;2.5;;
49582;SDS011;36329;48.816;44.624;2023-07-30T15:15:28;5.4;;;2.5;;
49582;SDS011;36329;48.816;44.624;2023-07-30T15:18:31;7.7;;;2.6;;
49582;SDS011;36329;48.816;44.624;2023-07-30T15:21:33;6.9;;;2.4;;
49582;SDS011;36329;48.816;44.624;2023-07-30T15:24:35;6.6;;;2.2;;
49582;SDS011;36329;48.816;44.624;2023-07-30T15:27:48;4.4;;;1.8;;
49582;SDS011;36329;48.816;44.624;2023-07-30T15:31:18;4.5;;;2;;
49582;SDS011;36329;48.816;44.624;2023-07-30T15:34:46;6.1;;;2.1;;
49582;SDS011;36329;48.816;44.624;2023-07-30T15:38:09;7.3;;;2.3;;
49582;SDS011;36329;48.816;44.624;2023-07-30T15:44:52;6.6;;;3.1;;
49582;SDS011;36329;48.816;44.624;2023-07-30T15:47:54;10;;;3.5;;
49582;SDS011;36329;48.816;44.624;2023-07-30T15:50:56;8;;;3.4;;
49582;SDS011;36329;48.816;44.624;2023-07-30T15:54:03;6.7;;;2.8;;
49582;SDS011;36329;48.816;44.624;2023-07-30T15:57:05;5.8;;;2.3;;
49582;SDS011;36329;48.816;44.624;2023-07-30T16:00:10;8.1;;;2.7;;
49582;SDS011;36329;48.816;44.624;2023-07-30T16:03:12;8;;;2.5;;
49582;SDS011;36329;48.816;44.624;2023-07-30T16:06:14;8;;;2;;
49582;SDS011;36329;48.816;44.624;2023-07-30T16:09:16;8.5;;;2.3;;
49582;SDS011;36329;48.816;44.624;2023-07-30T16:12:18;6.8;;;2.2;;
49582;SDS011;36329;48.816;44.624;2023-07-30T16:15:20;6.6;;;2.2;;
49582;SDS011;36329;48.816;44.624;2023-07-30T16:18:23;8.6;;;2.4;;
49582;SDS011;36329;48.816;44.624;2023-07-30T16:21:25;8.3;;;2.2;;
49582;SDS011;36329;48.816;44.624;2023-07-30T16:24:27;7.1;;;2.6;;
49582;SDS011;36329;48.816;44.624;2023-07-30T16:27:29;9.2;;;2.6;;
49582;SDS011;36329;48.816;44.624;2023-07-30T16:30:32;13.2;;;2.5;;
49582;SDS011;36329;48.816;44.624;2023-07-30T16:33:34;8.5;;;2.5;;
49582;SDS011;36329;48.816;44.624;2023-07-30T16:36:37;8;;;2.5;;
49582;SDS011;36329;48.816;44.624;2023-07-30T16:39:39;11.4;;;3.2;;
49582;SDS011;36329;48.816;44.624;2023-07-30T16:42:41;7.4;;;2.9;;
49582;SDS011;36329;48.816;44.624;2023-07-30T16:45:43;16.8;;;3.1;;
49582;SDS011;36329;48.816;44.624;2023-07-30T16:48:45;6.9;;;2.7;;
49582;SDS011;36329;48.816;44.624;2023-07-30T16:51:47;6.9;;;2.9;;
49582;SDS011;36329;48.816;44.624;2023-07-30T16:54:50;8;;;2.6;;
49582;SDS011;36329;48.816;44.624;2023-07-30T16:57:52;6.8;;;3;;
49582;SDS011;36329;48.816;44.624;2023-07-30T17:01:01;7.1;;;2.4;;
49582;SDS011;36329;48.816;44.624;2023-07-30T17:04:04;6;;;2.1;;
49582;SDS011;36329;48.816;44.624;2023-07-30T17:07:07;8.5;;;3.3;;
49582;SDS011;36329;48.816;44.624;2023-07-30T17:10:09;13.7;;;4.6;;
49582;SDS011;36329;48.816;44.624;2023-07-30T17:13:11;18;;;6.8;;
49582;SDS011;36329;48.816;44.624;2023-07-30T17:16:13;20.4;;;6.9;;
49582;SDS011;36329;48.816;44.624;2023-07-30T17:19:15;19.1;;;7;;
49582;SDS011;36329;48.816;44.624;2023-07-30T17:22:17;20.9;;;7.2;;
49582;SDS011;36329;48.816;44.624;2023-07-30T17:25:19;23.5;;;7.4;;
49582;SDS011;36329;48.816;44.624;2023-07-30T17:28:22;23;;;7.7;;
49582;SDS011;36329;48.816;44.624;2023-07-30T17:31:24;21;;;7.5;;
49582;SDS011;36329;48.816;44.624;2023-07-30T17:34:26;26.4;;;7.1;;
49582;SDS011;36329;48.816;44.624;2023-07-30T17:37:28;23;;;6.8;;
49582;SDS011;36329;48.816;44.624;2023-07-30T17:40:30;21.3;;;7.4;;
49582;SDS011;36329;48.816;44.624;2023-07-30T17:43:32;23.5;;;8.1;;
49582;SDS011;36329;48.816;44.624;2023-07-30T17:46:34;23.8;;;9.5;;
49582;SDS011;36329;48.816;44.624;2023-07-30T17:49:37;24.9;;;9.7;;
49582;SDS011;36329;48.816;44.624;2023-07-30T17:52:39;25.5;;;10.9;;
49582;SDS011;36329;48.816;44.624;2023-07-30T17:55:41;30.3;;;10.8;;
49582;SDS011;36329;48.816;44.624;2023-07-30T17:58:43;31;;;13;;
49582;SDS011;36329;48.816;44.624;2023-07-30T18:01:45;31.2;;;13.5;;
49582;SDS011;36329;48.816;44.624;2023-07-30T18:04:48;29.3;;;13.4;;
49582;SDS011;36329;48.816;44.624;2023-07-30T18:07:50;33.9;;;15.6;;
49582;SDS011;36329;48.816;44.624;2023-07-30T18:10:52;36;;;15.9;;
49582;SDS011;36329;48.816;44.624;2023-07-30T18:13:54;33.7;;;16.2;;
49582;SDS011;36329;48.816;44.624;2023-07-30T18:16:56;34.8;;;15.9;;
49582;SDS011;36329;48.816;44.624;2023-07-30T18:19:58;33;;;13.4;;
49582;SDS011;36329;48.816;44.624;2023-07-30T18:23:01;36.9;;;13.5;;
49582;SDS011;36329;48.816;44.624;2023-07-30T18:26:03;31.7;;;12.2;;
49582;SDS011;36329;48.816;44.624;2023-07-30T18:29:05;33.9;;;12.4;;
49582;SDS011;36329;48.816;44.624;2023-07-30T18:32:08;29.4;;;10.4;;
49582;SDS011;36329;48.816;44.624;2023-07-30T18:35:10;30.3;;;10.8;;
49582;SDS011;36329;48.816;44.624;2023-07-30T18:38:12;23;;;9.9;;
49582;SDS011;36329;48.816;44.624;2023-07-30T18:41:14;26;;;9.2;;
49582;SDS011;36329;48.816;44.624;2023-07-30T18:44:16;21.2;;;8.3;;
49582;SDS011;36329;48.816;44.624;2023-07-30T18:47:18;25.2;;;8;;
49582;SDS011;36329;48.816;44.624;2023-07-30T18:50:20;25.6;;;8;;